sensor_id;sensor_type;location;lat;lon;timestamp;P1;durP1;ratioP1;P2;durP2;ratioP2
6757;SDS011;3416;53.074;8.822;2022-10-04T00:02:21;11.15;;;6.05;;
6757;SDS011;3416;53.074;8.822;2022-10-04T00:04:52;9.02;;;5.75;;
6757;SDS011;3416;53.074;8.822;2022-10-04T00:07:25;8.18;;;6.15;;
6757;SDS011;3416;53.074;8.822;2022-10-04T00:09:54;8.68;;;5.68;;
6757;SDS011;3416;53.074;8.822;2022-10-04T00:12:25;12.00;;;7.68;;
6757;SDS011;3416;53.074;8.822;2022-10-04T00:14:56;15.05;;;7.03;;
6757;SDS011;3416;53.074;8.822;2022-10-04T00:17:25;9.10;;;5.07;;
6757;SDS011;3416;53.074;8.822;2022-10-04T00:19:55;11.82;;;5.85;;
6757;SDS011;3416;53.074;8.822;2022-10-04T00:22:24;13.15;;;7.97;;
6757;SDS011;3416;53.074;8.822;2022-10-04T00:33:49;9.02;;;6.65;;
6757;SDS011;3416;53.074;8.822;2022-10-04T00:45:22;10.75;;;7.20;;
6757;SDS011;3416;53.074;8.822;2022-10-04T00:50:52;8.05;;;5.50;;
6757;SDS011;3416;53.074;8.822;2022-10-04T00:53:30;13.18;;;7.13;;
6757;SDS011;3416;53.074;8.822;2022-10-04T00:56:11;9.52;;;7.60;;
6757;SDS011;3416;53.074;8.822;2022-10-04T00:58:44;12.90;;;7.13;;
6757;SDS011;3416;53.074;8.822;2022-10-04T01:01:28;14.13;;;7.45;;
6757;SDS011;3416;53.074;8.822;2022-10-04T01:04:01;8.10;;;7.25;;
6757;SDS011;3416;53.074;8.822;2022-10-04T01:06:33;11.70;;;7.15;;
6757;SDS011;3416;53.074;8.822;2022-10-04T01:09:03;16.30;;;8.00;;
6757;SDS011;3416;53.074;8.822;2022-10-04T01:11:34;14.88;;;7.90;;
6757;SDS011;3416;53.074;8.822;2022-10-04T01:14:03;13.40;;;7.65;;
6757;SDS011;3416;53.074;8.822;2022-10-04T01:16:34;10.98;;;6.28;;
6757;SDS011;3416;53.074;8.822;2022-10-04T01:21:57;8.10;;;5.47;;
6757;SDS011;3416;53.074;8.822;2022-10-04T01:24:33;13.05;;;6.32;;
6757;SDS011;3416;53.074;8.822;2022-10-04T01:27:01;9.60;;;7.47;;
6757;SDS011;3416;53.074;8.822;2022-10-04T01:29:29;14.00;;;7.60;;
6757;SDS011;3416;53.074;8.822;2022-10-04T01:31:57;11.57;;;7.00;;
6757;SDS011;3416;53.074;8.822;2022-10-04T01:34:29;13.23;;;7.28;;
6757;SDS011;3416;53.074;8.822;2022-10-04T01:36:57;10.50;;;7.53;;
6757;SDS011;3416;53.074;8.822;2022-10-04T01:39:26;14.38;;;6.95;;
6757;SDS011;3416;53.074;8.822;2022-10-04T01:41:55;13.25;;;8.60;;
6757;SDS011;3416;53.074;8.822;2022-10-04T01:44:29;17.95;;;8.07;;
6757;SDS011;3416;53.074;8.822;2022-10-04T01:47:02;12.70;;;8.80;;
6757;SDS011;3416;53.074;8.822;2022-10-04T01:49:33;16.60;;;9.23;;
6757;SDS011;3416;53.074;8.822;2022-10-04T01:52:05;12.23;;;8.57;;
6757;SDS011;3416;53.074;8.822;2022-10-04T01:54:35;12.00;;;8.07;;
6757;SDS011;3416;53.074;8.822;2022-10-04T01:57:11;14.27;;;8.82;;
6757;SDS011;3416;53.074;8.822;2022-10-04T01:59:43;14.90;;;9.18;;
6757;SDS011;3416;53.074;8.822;2022-10-04T02:02:17;18.58;;;8.18;;
6757;SDS011;3416;53.074;8.822;2022-10-04T02:04:50;11.85;;;9.10;;
6757;SDS011;3416;53.074;8.822;2022-10-04T02:07:21;11.98;;;8.35;;
6757;SDS011;3416;53.074;8.822;2022-10-04T02:09:53;15.27;;;7.32;;
6757;SDS011;3416;53.074;8.822;2022-10-04T02:12:24;11.15;;;9.13;;
6757;SDS011;3416;53.074;8.822;2022-10-04T02:14:57;12.82;;;8.95;;
6757;SDS011;3416;53.074;8.822;2022-10-04T02:17:27;12.15;;;9.32;;
6757;SDS011;3416;53.074;8.822;2022-10-04T02:19:56;11.82;;;8.73;;
6757;SDS011;3416;53.074;8.822;2022-10-04T02:22:25;19.65;;;8.50;;
6757;SDS011;3416;53.074;8.822;2022-10-04T02:24:53;11.75;;;8.75;;
6757;SDS011;3416;53.074;8.822;2022-10-04T02:27:26;11.40;;;7.78;;
6757;SDS011;3416;53.074;8.822;2022-10-04T02:29:58;10.35;;;8.25;;
6757;SDS011;3416;53.074;8.822;2022-10-04T02:32:28;14.48;;;9.57;;
6757;SDS011;3416;53.074;8.822;2022-10-04T02:35:13;15.35;;;7.90;;
6757;SDS011;3416;53.074;8.822;2022-10-04T02:37:41;11.38;;;7.90;;
6757;SDS011;3416;53.074;8.822;2022-10-04T02:40:09;12.93;;;8.43;;
6757;SDS011;3416;53.074;8.822;2022-10-04T02:42:42;16.08;;;7.80;;
6757;SDS011;3416;53.074;8.822;2022-10-04T02:45:15;9.10;;;8.00;;
6757;SDS011;3416;53.074;8.822;2022-10-04T02:47:46;10.55;;;8.05;;
6757;SDS011;3416;53.074;8.822;2022-10-04T02:50:19;11.63;;;7.70;;
6757;SDS011;3416;53.074;8.822;2022-10-04T02:52:53;18.10;;;8.95;;
6757;SDS011;3416;53.074;8.822;2022-10-04T02:55:25;10.18;;;8.10;;
6757;SDS011;3416;53.074;8.822;2022-10-04T02:57:56;14.10;;;9.52;;
6757;SDS011;3416;53.074;8.822;2022-10-04T03:00:25;11.95;;;8.57;;
6757;SDS011;3416;53.074;8.822;2022-10-04T03:03:08;9.20;;;8.30;;
6757;SDS011;3416;53.074;8.822;2022-10-04T03:05:41;11.52;;;8.65;;
6757;SDS011;3416;53.074;8.822;2022-10-04T03:08:11;10.00;;;7.60;;
6757;SDS011;3416;53.074;8.822;2022-10-04T03:10:40;11.60;;;9.20;;
6757;SDS011;3416;53.074;8.822;2022-10-04T03:13:09;12.77;;;10.32;;
6757;SDS011;3416;53.074;8.822;2022-10-04T03:15:38;17.45;;;8.95;;
6757;SDS011;3416;53.074;8.822;2022-10-04T03:18:07;15.60;;;8.82;;
6757;SDS011;3416;53.074;8.822;2022-10-04T03:20:35;17.23;;;9.20;;
6757;SDS011;3416;53.074;8.822;2022-10-04T03:23:04;11.40;;;8.90;;
6757;SDS011;3416;53.074;8.822;2022-10-04T03:25:34;11.68;;;9.02;;
6757;SDS011;3416;53.074;8.822;2022-10-04T03:28:10;14.52;;;8.93;;
6757;SDS011;3416;53.074;8.822;2022-10-04T03:30:40;17.35;;;8.80;;
6757;SDS011;3416;53.074;8.822;2022-10-04T03:33:12;16.80;;;10.43;;
6757;SDS011;3416;53.074;8.822;2022-10-04T03:35:49;13.73;;;9.32;;
6757;SDS011;3416;53.074;8.822;2022-10-04T03:38:19;12.82;;;9.30;;
6757;SDS011;3416;53.074;8.822;2022-10-04T03:40:49;11.68;;;8.63;;
6757;SDS011;3416;53.074;8.822;2022-10-04T03:43:21;19.25;;;8.68;;
6757;SDS011;3416;53.074;8.822;2022-10-04T03:45:51;18.55;;;9.65;;
6757;SDS011;3416;53.074;8.822;2022-10-04T03:48:22;14.38;;;9.45;;
6757;SDS011;3416;53.074;8.822;2022-10-04T03:50:55;15.82;;;8.82;;
6757;SDS011;3416;53.074;8.822;2022-10-04T03:53:27;16.95;;;8.38;;
6757;SDS011;3416;53.074;8.822;2022-10-04T03:55:56;20.42;;;10.02;;
6757;SDS011;3416;53.074;8.822;2022-10-04T03:58:27;14.15;;;8.85;;
6757;SDS011;3416;53.074;8.822;2022-10-04T04:01:02;11.68;;;8.90;;
6757;SDS011;3416;53.074;8.822;2022-10-04T04:03:40;14.25;;;8.75;;
6757;SDS011;3416;53.074;8.822;2022-10-04T04:06:16;15.27;;;10.98;;
6757;SDS011;3416;53.074;8.822;2022-10-04T04:08:46;12.88;;;10.75;;
6757;SDS011;3416;53.074;8.822;2022-10-04T04:11:18;28.67;;;12.15;;
6757;SDS011;3416;53.074;8.822;2022-10-04T04:13:51;14.30;;;10.18;;
6757;SDS011;3416;53.074;8.822;2022-10-04T04:16:24;13.95;;;9.85;;
6757;SDS011;3416;53.074;8.822;2022-10-04T04:18:52;23.27;;;10.63;;
6757;SDS011;3416;53.074;8.822;2022-10-04T04:21:24;14.63;;;11.20;;
6757;SDS011;3416;53.074;8.822;2022-10-04T04:23:54;19.65;;;10.25;;
6757;SDS011;3416;53.074;8.822;2022-10-04T04:26:26;12.77;;;10.38;;
6757;SDS011;3416;53.074;8.822;2022-10-04T04:29:02;16.80;;;9.95;;
6757;SDS011;3416;53.074;8.822;2022-10-04T04:31:37;16.67;;;9.13;;
6757;SDS011;3416;53.074;8.822;2022-10-04T04:34:18;22.80;;;12.60;;
6757;SDS011;3416;53.074;8.822;2022-10-04T04:36:46;16.33;;;10.10;;
6757;SDS011;3416;53.074;8.822;2022-10-04T04:39:14;15.70;;;11.30;;
6757;SDS011;3416;53.074;8.822;2022-10-04T04:42:01;19.67;;;11.82;;
6757;SDS011;3416;53.074;8.822;2022-10-04T04:44:32;16.27;;;11.77;;
6757;SDS011;3416;53.074;8.822;2022-10-04T04:46:59;18.63;;;13.32;;
6757;SDS011;3416;53.074;8.822;2022-10-04T04:49:32;14.98;;;10.20;;
6757;SDS011;3416;53.074;8.822;2022-10-04T04:52:02;15.13;;;11.05;;
6757;SDS011;3416;53.074;8.822;2022-10-04T04:54:29;18.10;;;12.05;;
6757;SDS011;3416;53.074;8.822;2022-10-04T04:56:57;16.85;;;11.10;;
6757;SDS011;3416;53.074;8.822;2022-10-04T04:59:24;15.43;;;11.65;;
6757;SDS011;3416;53.074;8.822;2022-10-04T05:01:54;17.10;;;10.32;;
6757;SDS011;3416;53.074;8.822;2022-10-04T05:04:21;15.38;;;11.98;;
6757;SDS011;3416;53.074;8.822;2022-10-04T05:06:58;17.95;;;11.52;;
6757;SDS011;3416;53.074;8.822;2022-10-04T05:09:28;18.80;;;12.85;;
6757;SDS011;3416;53.074;8.822;2022-10-04T05:11:57;19.80;;;11.70;;
6757;SDS011;3416;53.074;8.822;2022-10-04T05:14:32;21.95;;;13.23;;
6757;SDS011;3416;53.074;8.822;2022-10-04T05:17:02;27.92;;;12.93;;
6757;SDS011;3416;53.074;8.822;2022-10-04T05:19:31;16.60;;;12.60;;
6757;SDS011;3416;53.074;8.822;2022-10-04T05:22:01;22.63;;;11.63;;
6757;SDS011;3416;53.074;8.822;2022-10-04T05:24:35;16.92;;;12.05;;
6757;SDS011;3416;53.074;8.822;2022-10-04T05:27:05;13.25;;;11.55;;
6757;SDS011;3416;53.074;8.822;2022-10-04T05:29:54;17.92;;;13.70;;
6757;SDS011;3416;53.074;8.822;2022-10-04T05:32:31;19.90;;;13.93;;
6757;SDS011;3416;53.074;8.822;2022-10-04T05:35:13;19.35;;;14.98;;
6757;SDS011;3416;53.074;8.822;2022-10-04T05:37:49;15.85;;;14.13;;
6757;SDS011;3416;53.074;8.822;2022-10-04T05:40:26;22.05;;;14.13;;
6757;SDS011;3416;53.074;8.822;2022-10-04T05:42:58;19.75;;;13.15;;
6757;SDS011;3416;53.074;8.822;2022-10-04T05:45:26;18.92;;;13.05;;
6757;SDS011;3416;53.074;8.822;2022-10-04T05:47:56;20.95;;;12.77;;
6757;SDS011;3416;53.074;8.822;2022-10-04T05:50:28;16.67;;;11.82;;
6757;SDS011;3416;53.074;8.822;2022-10-04T05:53:07;19.20;;;12.95;;
6757;SDS011;3416;53.074;8.822;2022-10-04T05:55:41;14.80;;;11.45;;
6757;SDS011;3416;53.074;8.822;2022-10-04T05:58:25;21.73;;;13.68;;
6757;SDS011;3416;53.074;8.822;2022-10-04T06:01:16;30.35;;;17.05;;
6757;SDS011;3416;53.074;8.822;2022-10-04T06:04:01;22.15;;;15.70;;
6757;SDS011;3416;53.074;8.822;2022-10-04T06:06:52;21.52;;;12.02;;
6757;SDS011;3416;53.074;8.822;2022-10-04T06:12:25;14.57;;;12.63;;
6757;SDS011;3416;53.074;8.822;2022-10-04T06:15:04;28.83;;;13.88;;
6757;SDS011;3416;53.074;8.822;2022-10-04T06:17:49;16.05;;;13.10;;
6757;SDS011;3416;53.074;8.822;2022-10-04T06:20:48;16.00;;;11.65;;
6757;SDS011;3416;53.074;8.822;2022-10-04T06:23:34;15.48;;;13.82;;
6757;SDS011;3416;53.074;8.822;2022-10-04T06:26:09;18.45;;;12.60;;
6757;SDS011;3416;53.074;8.822;2022-10-04T06:28:40;18.88;;;13.00;;
6757;SDS011;3416;53.074;8.822;2022-10-04T06:31:23;16.27;;;12.70;;
6757;SDS011;3416;53.074;8.822;2022-10-04T06:34:16;17.58;;;12.00;;
6757;SDS011;3416;53.074;8.822;2022-10-04T06:37:07;15.00;;;11.30;;
6757;SDS011;3416;53.074;8.822;2022-10-04T06:39:56;14.60;;;11.63;;
6757;SDS011;3416;53.074;8.822;2022-10-04T06:45:35;16.80;;;11.68;;
6757;SDS011;3416;53.074;8.822;2022-10-04T06:48:31;14.82;;;10.10;;
6757;SDS011;3416;53.074;8.822;2022-10-04T06:51:22;14.90;;;10.40;;
6757;SDS011;3416;53.074;8.822;2022-10-04T06:54:02;16.02;;;11.05;;
6757;SDS011;3416;53.074;8.822;2022-10-04T06:56:47;18.92;;;11.23;;
6757;SDS011;3416;53.074;8.822;2022-10-04T06:59:35;11.82;;;8.82;;
6757;SDS011;3416;53.074;8.822;2022-10-04T07:02:15;15.55;;;9.82;;
6757;SDS011;3416;53.074;8.822;2022-10-04T07:04:48;11.87;;;8.40;;
6757;SDS011;3416;53.074;8.822;2022-10-04T07:07:22;18.80;;;10.03;;
6757;SDS011;3416;53.074;8.822;2022-10-04T07:10:04;43.67;;;9.93;;
6757;SDS011;3416;53.074;8.822;2022-10-04T07:12:46;10.10;;;7.47;;
6757;SDS011;3416;53.074;8.822;2022-10-04T07:15:20;13.63;;;8.60;;
6757;SDS011;3416;53.074;8.822;2022-10-04T07:17:50;6.93;;;6.20;;
6757;SDS011;3416;53.074;8.822;2022-10-04T07:20:20;12.20;;;6.50;;
6757;SDS011;3416;53.074;8.822;2022-10-04T07:22:52;12.70;;;7.33;;
6757;SDS011;3416;53.074;8.822;2022-10-04T07:25:26;6.87;;;5.30;;
6757;SDS011;3416;53.074;8.822;2022-10-04T07:27:56;12.40;;;6.63;;
6757;SDS011;3416;53.074;8.822;2022-10-04T07:30:46;7.80;;;5.77;;
6757;SDS011;3416;53.074;8.822;2022-10-04T07:33:20;10.83;;;7.00;;
6757;SDS011;3416;53.074;8.822;2022-10-04T07:35:49;22.57;;;6.97;;
6757;SDS011;3416;53.074;8.822;2022-10-04T07:38:21;14.00;;;7.43;;
6757;SDS011;3416;53.074;8.822;2022-10-04T07:41:01;16.13;;;7.50;;
6757;SDS011;3416;53.074;8.822;2022-10-04T07:43:34;12.77;;;8.60;;
6757;SDS011;3416;53.074;8.822;2022-10-04T07:46:13;8.50;;;7.63;;
6757;SDS011;3416;53.074;8.822;2022-10-04T07:48:44;10.27;;;7.77;;
6757;SDS011;3416;53.074;8.822;2022-10-04T07:51:18;10.63;;;8.93;;
6757;SDS011;3416;53.074;8.822;2022-10-04T07:53:50;20.27;;;9.70;;
6757;SDS011;3416;53.074;8.822;2022-10-04T07:56:25;11.50;;;7.43;;
6757;SDS011;3416;53.074;8.822;2022-10-04T08:01:49;8.57;;;7.17;;
6757;SDS011;3416;53.074;8.822;2022-10-04T08:04:30;9.30;;;5.47;;
6757;SDS011;3416;53.074;8.822;2022-10-04T08:07:12;16.10;;;5.37;;
6757;SDS011;3416;53.074;8.822;2022-10-04T08:09:50;11.13;;;6.30;;
6757;SDS011;3416;53.074;8.822;2022-10-04T08:12:29;10.67;;;6.73;;
6757;SDS011;3416;53.074;8.822;2022-10-04T08:15:13;10.70;;;5.63;;
6757;SDS011;3416;53.074;8.822;2022-10-04T08:17:56;7.30;;;5.20;;
6757;SDS011;3416;53.074;8.822;2022-10-04T08:20:33;10.00;;;5.97;;
6757;SDS011;3416;53.074;8.822;2022-10-04T08:23:18;6.73;;;4.40;;
6757;SDS011;3416;53.074;8.822;2022-10-04T08:26:01;7.60;;;4.73;;
6757;SDS011;3416;53.074;8.822;2022-10-04T08:28:42;5.53;;;4.83;;
6757;SDS011;3416;53.074;8.822;2022-10-04T08:31:35;10.80;;;5.73;;
6757;SDS011;3416;53.074;8.822;2022-10-04T08:34:17;6.53;;;4.90;;
6757;SDS011;3416;53.074;8.822;2022-10-04T08:36:58;6.40;;;4.70;;
6757;SDS011;3416;53.074;8.822;2022-10-04T08:39:34;13.83;;;5.60;;
6757;SDS011;3416;53.074;8.822;2022-10-04T08:42:29;6.17;;;4.03;;
6757;SDS011;3416;53.074;8.822;2022-10-04T08:45:21;9.60;;;5.70;;
6757;SDS011;3416;53.074;8.822;2022-10-04T08:51:23;7.63;;;4.47;;
6757;SDS011;3416;53.074;8.822;2022-10-04T08:54:23;7.47;;;3.93;;
6757;SDS011;3416;53.074;8.822;2022-10-04T08:57:10;9.80;;;5.17;;
6757;SDS011;3416;53.074;8.822;2022-10-04T09:00:02;11.50;;;4.77;;
6757;SDS011;3416;53.074;8.822;2022-10-04T09:05:49;5.20;;;4.17;;
6757;SDS011;3416;53.074;8.822;2022-10-04T09:11:55;11.80;;;4.70;;
6757;SDS011;3416;53.074;8.822;2022-10-04T09:14:49;14.40;;;5.10;;
6757;SDS011;3416;53.074;8.822;2022-10-04T09:17:42;13.20;;;5.17;;
6757;SDS011;3416;53.074;8.822;2022-10-04T09:20:26;11.23;;;6.60;;
6757;SDS011;3416;53.074;8.822;2022-10-04T09:23:21;10.23;;;5.47;;
6757;SDS011;3416;53.074;8.822;2022-10-04T09:26:19;11.67;;;5.83;;
6757;SDS011;3416;53.074;8.822;2022-10-04T09:28:58;6.37;;;4.90;;
6757;SDS011;3416;53.074;8.822;2022-10-04T09:34:40;6.00;;;4.90;;
6757;SDS011;3416;53.074;8.822;2022-10-04T09:37:38;10.13;;;4.80;;
6757;SDS011;3416;53.074;8.822;2022-10-04T09:40:48;8.30;;;4.10;;
6757;SDS011;3416;53.074;8.822;2022-10-04T09:43:35;9.70;;;5.10;;
6757;SDS011;3416;53.074;8.822;2022-10-04T09:46:43;10.43;;;5.33;;
6757;SDS011;3416;53.074;8.822;2022-10-04T09:49:30;12.43;;;5.40;;
6757;SDS011;3416;53.074;8.822;2022-10-04T09:52:12;6.53;;;3.90;;
6757;SDS011;3416;53.074;8.822;2022-10-04T09:54:56;7.30;;;3.90;;
6757;SDS011;3416;53.074;8.822;2022-10-04T09:57:37;8.53;;;3.97;;
6757;SDS011;3416;53.074;8.822;2022-10-04T10:00:28;9.23;;;3.80;;
6757;SDS011;3416;53.074;8.822;2022-10-04T10:03:17;8.70;;;4.13;;
6757;SDS011;3416;53.074;8.822;2022-10-04T10:09:10;7.40;;;3.70;;
6757;SDS011;3416;53.074;8.822;2022-10-04T10:12:26;8.30;;;4.20;;
6757;SDS011;3416;53.074;8.822;2022-10-04T10:15:33;14.20;;;4.33;;
6757;SDS011;3416;53.074;8.822;2022-10-04T10:18:15;9.93;;;3.77;;
6757;SDS011;3416;53.074;8.822;2022-10-04T10:20:54;8.43;;;4.40;;
6757;SDS011;3416;53.074;8.822;2022-10-04T10:23:45;8.07;;;4.37;;
6757;SDS011;3416;53.074;8.822;2022-10-04T10:26:47;6.37;;;4.10;;
6757;SDS011;3416;53.074;8.822;2022-10-04T10:32:27;7.80;;;4.17;;
6757;SDS011;3416;53.074;8.822;2022-10-04T10:35:15;7.53;;;4.37;;
6757;SDS011;3416;53.074;8.822;2022-10-04T10:41:04;6.90;;;3.97;;
6757;SDS011;3416;53.074;8.822;2022-10-04T10:44:17;8.27;;;4.50;;
6757;SDS011;3416;53.074;8.822;2022-10-04T10:47:10;9.70;;;3.83;;
6757;SDS011;3416;53.074;8.822;2022-10-04T10:52:54;10.53;;;5.40;;
6757;SDS011;3416;53.074;8.822;2022-10-04T11:02:15;10.23;;;4.70;;
6757;SDS011;3416;53.074;8.822;2022-10-04T11:04:56;5.90;;;3.73;;
6757;SDS011;3416;53.074;8.822;2022-10-04T11:07:43;7.53;;;2.97;;
6757;SDS011;3416;53.074;8.822;2022-10-04T11:13:27;4.53;;;2.67;;
6757;SDS011;3416;53.074;8.822;2022-10-04T11:19:21;5.20;;;3.50;;
6757;SDS011;3416;53.074;8.822;2022-10-04T11:25:22;7.90;;;3.03;;
6757;SDS011;3416;53.074;8.822;2022-10-04T11:28:08;9.33;;;3.40;;
6757;SDS011;3416;53.074;8.822;2022-10-04T11:30:51;8.20;;;3.60;;
6757;SDS011;3416;53.074;8.822;2022-10-04T11:33:48;7.23;;;4.17;;
6757;SDS011;3416;53.074;8.822;2022-10-04T11:36:37;8.80;;;3.30;;
6757;SDS011;3416;53.074;8.822;2022-10-04T11:39:20;8.27;;;3.70;;
6757;SDS011;3416;53.074;8.822;2022-10-04T11:42:09;7.73;;;3.33;;
6757;SDS011;3416;53.074;8.822;2022-10-04T11:45:12;5.73;;;3.60;;
6757;SDS011;3416;53.074;8.822;2022-10-04T11:48:01;9.60;;;4.80;;
6757;SDS011;3416;53.074;8.822;2022-10-04T11:50:47;9.00;;;4.30;;
6757;SDS011;3416;53.074;8.822;2022-10-04T11:53:47;9.30;;;4.70;;
6757;SDS011;3416;53.074;8.822;2022-10-04T11:56:37;5.43;;;3.70;;
6757;SDS011;3416;53.074;8.822;2022-10-04T11:59:29;7.33;;;4.37;;
6757;SDS011;3416;53.074;8.822;2022-10-04T12:05:37;18.97;;;3.87;;
6757;SDS011;3416;53.074;8.822;2022-10-04T12:08:19;7.80;;;4.07;;
6757;SDS011;3416;53.074;8.822;2022-10-04T12:11:12;8.33;;;4.70;;
6757;SDS011;3416;53.074;8.822;2022-10-04T12:14:17;11.30;;;6.33;;
6757;SDS011;3416;53.074;8.822;2022-10-04T12:17:00;6.20;;;3.90;;
6757;SDS011;3416;53.074;8.822;2022-10-04T12:19:59;12.27;;;4.47;;
6757;SDS011;3416;53.074;8.822;2022-10-04T12:22:50;8.07;;;4.23;;
6757;SDS011;3416;53.074;8.822;2022-10-04T12:25:33;11.83;;;4.83;;
6757;SDS011;3416;53.074;8.822;2022-10-04T12:28:17;11.50;;;5.00;;
6757;SDS011;3416;53.074;8.822;2022-10-04T12:33:52;7.00;;;4.23;;
6757;SDS011;3416;53.074;8.822;2022-10-04T12:39:25;9.53;;;4.40;;
6757;SDS011;3416;53.074;8.822;2022-10-04T12:42:10;9.83;;;5.27;;
6757;SDS011;3416;53.074;8.822;2022-10-04T12:44:56;8.30;;;5.10;;
6757;SDS011;3416;53.074;8.822;2022-10-04T12:47:49;8.60;;;4.40;;
6757;SDS011;3416;53.074;8.822;2022-10-04T12:50:34;9.57;;;4.70;;
6757;SDS011;3416;53.074;8.822;2022-10-04T12:53:14;8.17;;;4.83;;
6757;SDS011;3416;53.074;8.822;2022-10-04T12:55:56;7.43;;;4.43;;
6757;SDS011;3416;53.074;8.822;2022-10-04T12:58:41;6.43;;;3.90;;
6757;SDS011;3416;53.074;8.822;2022-10-04T13:01:30;10.03;;;4.03;;
6757;SDS011;3416;53.074;8.822;2022-10-04T13:04:15;9.23;;;4.70;;
6757;SDS011;3416;53.074;8.822;2022-10-04T13:06:52;9.70;;;4.33;;
6757;SDS011;3416;53.074;8.822;2022-10-04T13:09:35;7.73;;;5.03;;
6757;SDS011;3416;53.074;8.822;2022-10-04T13:12:18;8.70;;;4.80;;
6757;SDS011;3416;53.074;8.822;2022-10-04T13:15:08;5.17;;;4.10;;
6757;SDS011;3416;53.074;8.822;2022-10-04T13:17:48;8.30;;;3.30;;
6757;SDS011;3416;53.074;8.822;2022-10-04T13:20:28;4.50;;;3.23;;
6757;SDS011;3416;53.074;8.822;2022-10-04T13:23:05;5.90;;;4.43;;
6757;SDS011;3416;53.074;8.822;2022-10-04T13:25:59;8.17;;;4.30;;
6757;SDS011;3416;53.074;8.822;2022-10-04T13:28:33;6.43;;;4.47;;
6757;SDS011;3416;53.074;8.822;2022-10-04T13:31:12;6.30;;;3.93;;
6757;SDS011;3416;53.074;8.822;2022-10-04T13:33:50;11.87;;;5.30;;
6757;SDS011;3416;53.074;8.822;2022-10-04T13:36:23;5.03;;;3.33;;
6757;SDS011;3416;53.074;8.822;2022-10-04T13:39:07;7.67;;;3.87;;
6757;SDS011;3416;53.074;8.822;2022-10-04T13:42:10;10.30;;;4.90;;
6757;SDS011;3416;53.074;8.822;2022-10-04T13:44:59;6.93;;;3.80;;
6757;SDS011;3416;53.074;8.822;2022-10-04T13:48:04;6.20;;;3.53;;
6757;SDS011;3416;53.074;8.822;2022-10-04T13:50:45;6.60;;;4.30;;
6757;SDS011;3416;53.074;8.822;2022-10-04T13:53:25;6.30;;;3.93;;
6757;SDS011;3416;53.074;8.822;2022-10-04T13:56:34;7.00;;;4.10;;
6757;SDS011;3416;53.074;8.822;2022-10-04T13:59:16;10.40;;;4.70;;
6757;SDS011;3416;53.074;8.822;2022-10-04T14:01:55;6.23;;;4.03;;
6757;SDS011;3416;53.074;8.822;2022-10-04T14:04:58;7.33;;;3.70;;
6757;SDS011;3416;53.074;8.822;2022-10-04T14:08:05;7.20;;;3.63;;
6757;SDS011;3416;53.074;8.822;2022-10-04T14:11:10;3.60;;;2.60;;
6757;SDS011;3416;53.074;8.822;2022-10-04T14:17:12;6.30;;;4.07;;
6757;SDS011;3416;53.074;8.822;2022-10-04T14:26:25;7.13;;;4.47;;
6757;SDS011;3416;53.074;8.822;2022-10-04T14:29:11;4.70;;;3.30;;
6757;SDS011;3416;53.074;8.822;2022-10-04T14:32:13;5.53;;;3.40;;
6757;SDS011;3416;53.074;8.822;2022-10-04T14:35:06;5.83;;;3.70;;
6757;SDS011;3416;53.074;8.822;2022-10-04T14:40:43;8.40;;;3.20;;
6757;SDS011;3416;53.074;8.822;2022-10-04T14:46:45;9.80;;;3.77;;
6757;SDS011;3416;53.074;8.822;2022-10-04T14:49:22;6.70;;;3.80;;
6757;SDS011;3416;53.074;8.822;2022-10-04T14:52:08;8.27;;;4.27;;
6757;SDS011;3416;53.074;8.822;2022-10-04T14:54:48;5.10;;;3.73;;
6757;SDS011;3416;53.074;8.822;2022-10-04T14:57:20;9.30;;;5.00;;
6757;SDS011;3416;53.074;8.822;2022-10-04T15:00:08;11.97;;;4.30;;
6757;SDS011;3416;53.074;8.822;2022-10-04T15:06:09;10.27;;;4.70;;
6757;SDS011;3416;53.074;8.822;2022-10-04T15:08:56;7.70;;;4.40;;
6757;SDS011;3416;53.074;8.822;2022-10-04T15:11:37;9.23;;;3.27;;
6757;SDS011;3416;53.074;8.822;2022-10-04T15:17:03;7.60;;;3.40;;
6757;SDS011;3416;53.074;8.822;2022-10-04T15:19:42;6.03;;;3.90;;
6757;SDS011;3416;53.074;8.822;2022-10-04T15:22:23;6.17;;;3.97;;
6757;SDS011;3416;53.074;8.822;2022-10-04T15:24:53;9.90;;;4.00;;
6757;SDS011;3416;53.074;8.822;2022-10-04T15:27:23;9.27;;;3.97;;
6757;SDS011;3416;53.074;8.822;2022-10-04T15:30:33;6.90;;;4.03;;
6757;SDS011;3416;53.074;8.822;2022-10-04T15:33:17;5.80;;;4.10;;
6757;SDS011;3416;53.074;8.822;2022-10-04T15:36:07;4.60;;;3.30;;
6757;SDS011;3416;53.074;8.822;2022-10-04T15:38:43;6.30;;;3.70;;
6757;SDS011;3416;53.074;8.822;2022-10-04T15:41:18;4.73;;;3.40;;
6757;SDS011;3416;53.074;8.822;2022-10-04T15:44:10;8.00;;;3.80;;
6757;SDS011;3416;53.074;8.822;2022-10-04T15:46:55;7.53;;;3.90;;
6757;SDS011;3416;53.074;8.822;2022-10-04T15:49:46;4.37;;;2.97;;
6757;SDS011;3416;53.074;8.822;2022-10-04T16:01:27;10.80;;;3.90;;
6757;SDS011;3416;53.074;8.822;2022-10-04T16:04:18;5.90;;;3.33;;
6757;SDS011;3416;53.074;8.822;2022-10-04T16:07:07;6.07;;;3.23;;
6757;SDS011;3416;53.074;8.822;2022-10-04T16:09:51;7.87;;;3.63;;
6757;SDS011;3416;53.074;8.822;2022-10-04T16:12:25;9.00;;;4.87;;
6757;SDS011;3416;53.074;8.822;2022-10-04T16:14:56;9.20;;;4.33;;
6757;SDS011;3416;53.074;8.822;2022-10-04T16:17:39;7.37;;;4.70;;
6757;SDS011;3416;53.074;8.822;2022-10-04T16:20:27;12.77;;;4.53;;
6757;SDS011;3416;53.074;8.822;2022-10-04T16:23:25;8.00;;;4.00;;
6757;SDS011;3416;53.074;8.822;2022-10-04T16:25:56;7.00;;;4.40;;
6757;SDS011;3416;53.074;8.822;2022-10-04T16:28:31;7.97;;;5.13;;
6757;SDS011;3416;53.074;8.822;2022-10-04T16:31:21;8.70;;;3.53;;
6757;SDS011;3416;53.074;8.822;2022-10-04T16:34:07;6.13;;;4.17;;
6757;SDS011;3416;53.074;8.822;2022-10-04T16:37:11;8.47;;;4.33;;
6757;SDS011;3416;53.074;8.822;2022-10-04T16:39:48;7.23;;;4.50;;
6757;SDS011;3416;53.074;8.822;2022-10-04T16:42:26;7.10;;;4.80;;
6757;SDS011;3416;53.074;8.822;2022-10-04T16:45:23;9.10;;;4.87;;
6757;SDS011;3416;53.074;8.822;2022-10-04T16:48:10;7.83;;;4.20;;
6757;SDS011;3416;53.074;8.822;2022-10-04T16:53:53;8.33;;;4.77;;
6757;SDS011;3416;53.074;8.822;2022-10-04T16:56:28;8.50;;;4.50;;
6757;SDS011;3416;53.074;8.822;2022-10-04T16:58:59;7.60;;;4.53;;
6757;SDS011;3416;53.074;8.822;2022-10-04T17:10:16;8.93;;;5.10;;
6757;SDS011;3416;53.074;8.822;2022-10-04T17:12:54;9.13;;;5.93;;
6757;SDS011;3416;53.074;8.822;2022-10-04T17:15:45;7.63;;;5.20;;
6757;SDS011;3416;53.074;8.822;2022-10-04T17:18:25;9.53;;;6.13;;
6757;SDS011;3416;53.074;8.822;2022-10-04T17:20:57;7.83;;;5.57;;
6757;SDS011;3416;53.074;8.822;2022-10-04T17:23:32;6.73;;;5.30;;
6757;SDS011;3416;53.074;8.822;2022-10-04T17:26:18;5.70;;;4.20;;
6757;SDS011;3416;53.074;8.822;2022-10-04T17:29:00;10.23;;;6.28;;
6757;SDS011;3416;53.074;8.822;2022-10-04T17:31:44;10.93;;;7.10;;
6757;SDS011;3416;53.074;8.822;2022-10-04T17:34:19;11.80;;;6.60;;
6757;SDS011;3416;53.074;8.822;2022-10-04T17:36:57;8.98;;;5.35;;
6757;SDS011;3416;53.074;8.822;2022-10-04T17:39:36;14.83;;;6.00;;
6757;SDS011;3416;53.074;8.822;2022-10-04T17:42:17;8.60;;;5.50;;
6757;SDS011;3416;53.074;8.822;2022-10-04T17:44:56;8.67;;;6.33;;
6757;SDS011;3416;53.074;8.822;2022-10-04T17:47:35;8.37;;;6.17;;
6757;SDS011;3416;53.074;8.822;2022-10-04T17:50:23;11.10;;;6.47;;
6757;SDS011;3416;53.074;8.822;2022-10-04T17:53:13;10.07;;;5.90;;
6757;SDS011;3416;53.074;8.822;2022-10-04T17:56:02;8.60;;;5.43;;
6757;SDS011;3416;53.074;8.822;2022-10-04T17:58:36;9.13;;;6.93;;
6757;SDS011;3416;53.074;8.822;2022-10-04T18:01:08;8.60;;;6.20;;
6757;SDS011;3416;53.074;8.822;2022-10-04T18:03:41;7.00;;;5.80;;
6757;SDS011;3416;53.074;8.822;2022-10-04T18:06:13;9.65;;;6.07;;
6757;SDS011;3416;53.074;8.822;2022-10-04T18:08:45;9.35;;;6.03;;
6757;SDS011;3416;53.074;8.822;2022-10-04T18:11:21;11.27;;;6.72;;
6757;SDS011;3416;53.074;8.822;2022-10-04T18:13:56;14.00;;;8.10;;
6757;SDS011;3416;53.074;8.822;2022-10-04T18:16:28;7.03;;;5.77;;
6757;SDS011;3416;53.074;8.822;2022-10-04T18:18:57;9.80;;;7.50;;
6757;SDS011;3416;53.074;8.822;2022-10-04T18:21:50;15.63;;;6.88;;
6757;SDS011;3416;53.074;8.822;2022-10-04T18:24:18;10.65;;;6.30;;
6757;SDS011;3416;53.074;8.822;2022-10-04T18:26:52;13.53;;;6.57;;
6757;SDS011;3416;53.074;8.822;2022-10-04T18:29:33;8.95;;;6.45;;